Terminal Aerodrome Forecast
Issued by NWS Twin Cities, MN

Home | Current Version | Previous Version | Graphics & Text | Print | Product List | Glossary On
Versions: 1 2 3 4 5 6 7 8 9 10 11 12 13 14 15 16 17 18 19 20
810
FTUS43 KMPX 181121
TAFSTC
TAF
KSTC 181121Z 1812/1912 28006KT P6SM SCT200
     FM190000 16003KT P6SM BKN200
     FM190700 12003KT 6SM BR FEW250=

USA.gov is the U.S. government's official web portal to all federal, state and local government web resources and services.